Time;durP1;ratioP1;P1;durP2;ratioP2;P2;SDS_P1;SDS_P2;PMS_P1;PMS_P2;Temp;Humidity;BMP_temperature;BMP_pressure;BME280_temperature;BME280_humidity;BME280_pressure;Samples;Min_cycle;Max_cycle;Signal;HPM_P1;HPM_P2
2023/01/09 00:00:53;;;;;;;0.20;0.10;;;;;;;9.43;100.00;99110.06;10446550;28;20099;-82
2023/01/09 00:05:55;;;;;;;0.00;0.00;;;;;;;9.57;100.00;99116.97;10423473;28;20048;-83
2023/01/09 00:10:56;;;;;;;0.03;0.00;;;;;;;9.32;100.00;99107.47;10424894;28;20055;-86
2023/01/09 00:15:58;;;;;;;0.20;0.20;;;;;;;9.31;100.00;99115.19;10422719;28;20123;-85
2023/01/09 00:21:02;;;;;;;0.13;0.10;;;;;;;9.50;100.00;99110.94;10409838;28;20080;-85
2023/01/09 00:26:12;;;;;;;0.00;0.00;;;;;;;9.59;100.00;99123.81;10436737;28;20099;-85
2023/01/09 00:31:14;;;;;;;0.00;0.00;;;;;;;9.40;100.00;99140.91;10394357;28;20094;-84
2023/01/09 00:36:15;;;;;;;0.20;0.10;;;;;;;9.33;100.00;99146.91;10411553;28;20073;-83
2023/01/09 00:41:24;;;;;;;0.00;0.00;;;;;;;9.24;100.00;99144.28;10423150;28;20045;-84
2023/01/09 00:46:32;;;;;;;0.00;0.00;;;;;;;9.26;100.00;99138.31;10411273;28;20096;-84
2023/01/09 00:51:34;;;;;;;0.00;0.00;;;;;;;9.36;100.00;99140.06;10399102;28;20057;-84
2023/01/09 00:56:36;;;;;;;0.00;0.00;;;;;;;9.28;100.00;99148.56;10393753;28;20107;-84
2023/01/09 01:01:38;;;;;;;0.00;0.00;;;;;;;9.42;100.00;99148.63;10409683;28;20069;-83
2023/01/09 01:12:05;;;;;;;0.00;0.00;;;;;;;9.39;100.00;99175.19;10423349;28;20048;-83
2023/01/09 01:17:07;;;;;;;0.17;0.10;;;;;;;9.27;100.00;99170.00;10421235;28;20440;-83
2023/01/09 01:22:09;;;;;;;0.00;0.00;;;;;;;9.11;100.00;99182.81;10398161;28;20451;-83
2023/01/09 01:27:11;;;;;;;0.15;0.15;;;;;;;9.03;100.00;99176.78;10400832;28;20046;-84
2023/01/09 01:32:12;;;;;;;0.00;0.00;;;;;;;8.83;100.00;99185.22;10400849;28;20087;-84
2023/01/09 01:37:14;;;;;;;0.00;0.00;;;;;;;8.61;100.00;99188.50;10416421;28;20139;-83
2023/01/09 01:42:17;;;;;;;0.00;0.00;;;;;;;8.40;100.00;99190.06;10418359;28;20064;-83
2023/01/09 01:47:21;;;;;;;0.00;0.00;;;;;;;8.27;100.00;99183.97;10416965;28;20053;-83
2023/01/09 01:52:23;;;;;;;0.05;0.05;;;;;;;8.09;100.00;99200.06;10399868;28;20099;-83
2023/01/09 01:57:25;;;;;;;0.00;0.00;;;;;;;8.09;100.00;99210.34;10415795;28;20236;-84
2023/01/09 02:02:29;;;;;;;0.00;0.00;;;;;;;8.05;100.00;99216.31;10415522;28;20042;-85
2023/01/09 02:07:31;;;;;;;0.00;0.00;;;;;;;8.06;100.00;99221.44;10415435;28;20493;-84
2023/01/09 02:12:33;;;;;;;0.00;0.00;;;;;;;7.95;100.00;99217.94;10428314;28;20524;-85
2023/01/09 02:18:00;;;;;;;0.55;0.10;;;;;;;7.77;100.00;99218.59;10414926;28;20041;-85
2023/01/09 02:23:07;;;;;;;0.00;0.00;;;;;;;7.72;100.00;99221.13;10418979;28;20178;-85
2023/01/09 02:28:38;;;;;;;0.10;0.10;;;;;;;7.49;100.00;99228.53;10402932;28;20053;-85
2023/01/09 02:33:57;;;;;;;0.00;0.00;;;;;;;7.61;100.00;99232.94;10414661;28;20042;-86
2023/01/09 02:39:20;;;;;;;0.00;0.00;;;;;;;7.45;100.00;99232.78;10406600;28;20125;-86
2023/01/09 02:44:34;;;;;;;0.10;0.10;;;;;;;7.50;100.00;99229.41;10414596;28;20064;-83
2023/01/09 02:49:38;;;;;;;0.00;0.00;;;;;;;7.13;100.00;99245.19;10413914;28;20045;-85
2023/01/09 02:55:23;;;;;;;0.00;0.00;;;;;;;7.40;100.00;99248.97;10416084;28;20041;-86
2023/01/09 03:00:52;;;;;;;0.00;0.00;;;;;;;7.20;100.00;99249.53;10423518;28;20370;-86
2023/01/09 03:06:17;;;;;;;0.08;0.08;;;;;;;7.04;100.00;99255.28;10396975;28;20041;-86
2023/01/09 03:11:20;;;;;;;0.00;0.00;;;;;;;6.89;100.00;99259.38;10403607;28;20072;-80
2023/01/09 03:16:35;;;;;;;0.25;0.22;;;;;;;6.99;100.00;99266.34;10413359;28;20038;-80
2023/01/09 03:21:38;;;;;;;0.00;0.00;;;;;;;6.84;100.00;99258.44;10413375;28;20136;-80
2023/01/09 03:26:40;;;;;;;0.00;0.00;;;;;;;6.74;100.00;99277.09;10396965;28;20448;-80
2023/01/09 03:31:41;;;;;;;0.10;0.10;;;;;;;6.77;100.00;99266.88;10412623;28;20145;-80
2023/01/09 03:36:43;;;;;;;0.00;0.00;;;;;;;6.72;100.00;99273.63;10422572;28;20140;-80
2023/01/09 03:41:45;;;;;;;0.00;0.00;;;;;;;6.56;100.00;99277.63;10426835;28;20045;-79
2023/01/09 03:46:49;;;;;;;0.00;0.00;;;;;;;6.79;100.00;99270.31;10441967;28;20050;-80
2023/01/09 03:51:50;;;;;;;0.05;0.05;;;;;;;6.75;100.00;99286.47;10432035;28;20400;-79
2023/01/09 03:56:52;;;;;;;0.10;0.10;;;;;;;6.67;100.00;99287.19;10436007;28;20047;-79
2023/01/09 04:01:54;;;;;;;0.00;0.00;;;;;;;6.71;100.00;99287.25;10409428;28;20041;-79
2023/01/09 04:06:55;;;;;;;0.00;0.00;;;;;;;6.78;100.00;99278.84;10425772;28;20051;-80
2023/01/09 04:11:57;;;;;;;0.10;0.10;;;;;;;6.64;100.00;99282.06;10424698;28;20048;-80
2023/01/09 04:16:59;;;;;;;0.10;0.10;;;;;;;6.54;100.00;99280.19;10426995;28;20103;-79
2023/01/09 04:22:00;;;;;;;0.00;0.00;;;;;;;6.62;100.00;99272.63;10424068;28;20056;-80
2023/01/09 04:27:02;;;;;;;0.10;0.10;;;;;;;6.49;100.00;99276.69;10423903;28;20073;-80
2023/01/09 04:32:04;;;;;;;0.20;0.05;;;;;;;6.53;100.00;99287.84;10411848;28;20512;-80
2023/01/09 04:37:06;;;;;;;0.00;0.00;;;;;;;6.67;100.00;99289.75;10394934;28;20045;-80
2023/01/09 04:42:08;;;;;;;0.00;0.00;;;;;;;6.37;100.00;99297.81;10399075;28;20411;-86
2023/01/09 04:47:12;;;;;;;1.38;0.32;;;;;;;6.55;100.00;99304.94;10451559;28;20044;-86
2023/01/09 04:52:14;;;;;;;0.00;0.00;;;;;;;6.50;100.00;99309.97;10430879;28;20049;-85
2023/01/09 04:57:16;;;;;;;0.00;0.00;;;;;;;6.63;100.00;99311.03;10433905;28;20080;-86
2023/01/09 05:02:18;;;;;;;0.22;0.22;;;;;;;6.43;100.00;99322.66;10435518;28;20095;-86
2023/01/09 05:07:19;;;;;;;0.38;0.13;;;;;;;6.48;100.00;99315.91;10427983;28;20073;-87
2023/01/09 05:12:21;;;;;;;0.05;0.05;;;;;;;6.57;100.00;99321.19;10416094;28;20096;-87
2023/01/09 05:17:24;;;;;;;0.00;0.00;;;;;;;6.72;100.00;99324.81;10446199;28;20147;-86
2023/01/09 05:22:26;;;;;;;0.93;0.55;;;;;;;6.82;100.00;99319.00;10417130;28;20570;-86
2023/01/09 05:27:29;;;;;;;0.00;0.00;;;;;;;6.81;100.00;99324.97;10422045;28;20056;-86
2023/01/09 05:32:31;;;;;;;0.20;0.20;;;;;;;7.19;100.00;99324.66;10426905;28;20037;-86
2023/01/09 05:37:32;;;;;;;0.00;0.00;;;;;;;7.11;100.00;99339.09;10431705;28;20032;-87
2023/01/09 05:42:34;;;;;;;0.00;0.00;;;;;;;6.86;100.00;99332.69;10445081;28;20045;-85
2023/01/09 05:47:36;;;;;;;0.80;0.65;;;;;;;7.20;100.00;99317.84;10420056;28;20084;-86
2023/01/09 05:52:38;;;;;;;0.00;0.00;;;;;;;7.24;100.00;99325.59;10412256;28;20072;-86
2023/01/09 05:57:39;;;;;;;0.38;0.10;;;;;;;7.26;100.00;99323.91;10419751;28;20091;-87
2023/01/09 06:02:41;;;;;;;10.90;0.28;;;;;;;7.36;100.00;99318.91;10399459;28;20045;-87
2023/01/09 06:07:43;;;;;;;0.00;0.00;;;;;;;7.37;100.00;99320.63;10419174;28;20054;-86
2023/01/09 06:12:49;;;;;;;0.20;0.20;;;;;;;7.36;100.00;99318.91;10415447;28;20099;-86
2023/01/09 06:17:51;;;;;;;1.10;1.00;;;;;;;7.26;100.00;99303.41;10423885;28;20464;-86
2023/01/09 06:22:52;;;;;;;0.00;0.00;;;;;;;7.24;100.00;99310.25;10438420;28;20056;-86
2023/01/09 06:27:54;;;;;;;0.00;0.00;;;;;;;7.41;100.00;99323.28;10409219;28;20048;-86
2023/01/09 06:32:56;;;;;;;0.65;0.22;;;;;;;7.18;100.00;99315.28;10404187;28;20049;-86
2023/01/09 06:38:00;;;;;;;0.20;0.20;;;;;;;7.25;100.00;99311.97;10438863;28;20064;-86
2023/01/09 06:43:01;;;;;;;2.90;1.17;;;;;;;7.36;100.00;99309.53;10389939;28;20494;-87
2023/01/09 06:48:03;;;;;;;1.33;0.05;;;;;;;7.54;100.00;99311.47;10415397;28;20488;-86
2023/01/09 06:53:05;;;;;;;10.60;2.08;;;;;;;7.45;100.00;99303.66;10431991;28;20086;-86
2023/01/09 06:58:07;;;;;;;0.00;0.00;;;;;;;7.29;100.00;99300.06;10402678;28;20049;-86
2023/01/09 07:03:10;;;;;;;0.00;0.00;;;;;;;7.46;100.00;99297.72;10417179;28;20500;-84
2023/01/09 07:08:11;;;;;;;0.00;0.00;;;;;;;7.62;100.00;99302.19;10417436;28;20038;-85
2023/01/09 07:13:13;;;;;;;0.13;0.13;;;;;;;7.51;100.00;99298.63;10392939;28;20072;-84
2023/01/09 07:18:15;;;;;;;0.00;0.00;;;;;;;7.84;100.00;99294.75;10426753;28;20049;-86
2023/01/09 07:23:17;;;;;;;0.70;0.22;;;;;;;7.60;100.00;99296.16;10414806;28;20042;-85
2023/01/09 07:28:22;;;;;;;0.63;0.35;;;;;;;7.94;100.00;99298.25;10422174;28;20501;-79
2023/01/09 07:33:24;;;;;;;2.58;0.22;;;;;;;7.73;100.00;99301.44;10413344;28;20068;-79
2023/01/09 07:38:26;;;;;;;0.00;0.00;;;;;;;7.72;100.00;99307.41;10414493;28;20544;-79
2023/01/09 07:43:27;;;;;;;0.00;0.00;;;;;;;7.81;100.00;99297.25;10412746;28;20045;-78
2023/01/09 07:48:29;;;;;;;0.03;0.03;;;;;;;8.04;100.00;99292.38;10395222;28;20524;-78
2023/01/09 07:53:30;;;;;;;0.00;0.00;;;;;;;8.14;100.00;99301.03;10411317;28;20091;-78
2023/01/09 07:58:32;;;;;;;0.20;0.20;;;;;;;8.21;100.00;99302.81;10394743;28;20069;-79
2023/01/09 08:03:34;;;;;;;0.00;0.00;;;;;;;8.05;100.00;99314.59;10407581;28;20045;-79
2023/01/09 08:08:35;;;;;;;0.00;0.00;;;;;;;7.87;100.00;99312.72;10400679;28;20053;-80
2023/01/09 08:13:38;;;;;;;0.00;0.00;;;;;;;7.72;100.00;99325.34;10401535;28;20045;-79
2023/01/09 08:18:40;;;;;;;0.05;0.05;;;;;;;7.69;100.00;99331.31;10395121;28;20049;-79
2023/01/09 08:23:41;;;;;;;0.00;0.00;;;;;;;7.72;100.00;99317.66;10430925;28;20139;-79
2023/01/09 08:28:43;;;;;;;0.00;0.00;;;;;;;7.87;100.00;99307.56;10407563;28;20632;-79
2023/01/09 08:33:44;;;;;;;0.00;0.00;;;;;;;7.71;100.00;99303.13;10395148;28;20045;-79
2023/01/09 08:38:46;;;;;;;0.20;0.20;;;;;;;7.90;100.00;99287.09;10386095;28;20419;-78
2023/01/09 08:49:08;;;;;;;0.30;0.15;;;;;;;7.78;100.00;99281.84;10411702;28;20049;-78
2023/01/09 08:54:10;;;;;;;0.25;0.10;;;;;;;7.98;100.00;99299.16;10393325;28;20054;-78
2023/01/09 08:59:11;;;;;;;0.45;0.30;;;;;;;7.96;100.00;99306.84;10370570;28;20050;-77
2023/01/09 09:04:13;;;;;;;0.00;0.00;;;;;;;8.03;100.00;99320.56;10411594;28;20042;-80
2023/01/09 09:09:15;;;;;;;0.28;0.28;;;;;;;8.09;100.00;99329.19;10408967;28;20091;-80
2023/01/09 09:19:38;;;;;;;0.10;0.10;;;;;;;8.04;100.00;99346.22;10454566;28;20068;-80
2023/01/09 09:24:40;;;;;;;0.08;0.08;;;;;;;8.08;100.00;99357.38;10413314;28;20057;-79
2023/01/09 09:29:41;;;;;;;2.63;0.22;;;;;;;8.04;100.00;99363.34;10386998;28;20042;-79
2023/01/09 09:34:43;;;;;;;0.55;0.25;;;;;;;8.06;100.00;99365.06;10393106;28;20500;-79
2023/01/09 09:39:44;;;;;;;0.43;0.35;;;;;;;8.14;100.00;99367.72;10391590;28;20046;-81
2023/01/09 09:45:06;;;;;;;0.00;0.00;;;;;;;8.45;100.00;99392.84;10413389;28;20080;-80
2023/01/09 09:50:17;;;;;;;0.13;0.13;;;;;;;8.54;100.00;99393.81;10405136;28;20045;-80
2023/01/09 09:55:33;;;;;;;0.52;0.28;;;;;;;8.64;100.00;99414.47;10419079;28;20073;-80
2023/01/09 10:00:34;;;;;;;0.00;0.00;;;;;;;8.56;100.00;99422.09;10399648;28;20094;-80
2023/01/09 10:05:41;;;;;;;0.05;0.05;;;;;;;8.58;100.00;99440.91;10419665;28;20077;-80
2023/01/09 10:10:52;;;;;;;0.10;0.10;;;;;;;8.59;100.00;99437.50;10415833;28;20073;-81
2023/01/09 10:16:15;;;;;;;0.00;0.00;;;;;;;8.55;100.00;99446.03;10410339;28;20056;-80
2023/01/09 10:21:39;;;;;;;0.22;0.20;;;;;;;8.77;100.00;99461.66;10417441;28;20061;-80
2023/01/09 10:26:47;;;;;;;0.00;0.00;;;;;;;8.70;100.00;99481.28;10414493;28;20084;-80
2023/01/09 10:32:08;;;;;;;0.15;0.15;;;;;;;8.56;100.00;99483.72;10414516;28;20574;-80
2023/01/09 10:37:28;;;;;;;0.10;0.10;;;;;;;8.62;100.00;99485.47;10409510;28;20110;-80
2023/01/09 10:43:08;;;;;;;0.00;0.00;;;;;;;8.71;100.00;99495.84;10434193;28;20132;-81
2023/01/09 10:48:36;;;;;;;0.10;0.10;;;;;;;8.75;100.00;99486.47;10404826;28;20460;-81
2023/01/09 10:53:44;;;;;;;7.22;0.30;;;;;;;9.21;100.00;99490.31;10406587;28;20045;-81
2023/01/09 10:58:46;;;;;;;0.00;0.00;;;;;;;9.19;100.00;99498.88;10414903;28;20076;-81
2023/01/09 11:03:51;;;;;;;0.32;0.32;;;;;;;9.25;100.00;99505.78;10403848;28;20057;-81
2023/01/09 11:08:57;;;;;;;0.08;0.08;;;;;;;9.19;100.00;99507.47;10414763;28;20179;-81
2023/01/09 11:14:05;;;;;;;0.20;0.20;;;;;;;9.43;100.00;99500.78;10414158;28;20548;-81
2023/01/09 11:19:14;;;;;;;0.25;0.22;;;;;;;9.15;100.00;99515.97;10402272;28;20046;-80
2023/01/09 11:24:20;;;;;;;0.00;0.00;;;;;;;9.56;100.00;99511.19;10400962;28;20073;-81
2023/01/09 11:29:23;;;;;;;0.20;0.20;;;;;;;9.67;100.00;99524.97;10420586;28;20080;-80
2023/01/09 11:34:31;;;;;;;0.00;0.00;;;;;;;9.79;100.00;99535.31;10421710;28;20103;-81
2023/01/09 11:39:36;;;;;;;0.00;0.00;;;;;;;9.81;100.00;99541.34;10413792;28;20485;-84
2023/01/09 11:44:38;;;;;;;0.35;0.20;;;;;;;10.19;100.00;99544.16;10412788;28;20041;-85
2023/01/09 11:49:40;;;;;;;0.17;0.17;;;;;;;10.13;100.00;99561.28;10414694;28;20466;-84
2023/01/09 11:54:51;;;;;;;0.32;0.30;;;;;;;11.32;100.00;99578.94;10411385;28;20045;-84
2023/01/09 12:00:00;;;;;;;0.00;0.00;;;;;;;10.87;100.00;99596.00;10413409;28;20120;-84
2023/01/09 12:05:19;;;;;;;0.05;0.05;;;;;;;10.53;100.00;99607.03;10413451;28;20128;-84
2023/01/09 12:10:39;;;;;;;0.38;0.22;;;;;;;10.34;100.00;99610.34;10411728;28;20447;-84
2023/01/09 12:16:10;;;;;;;0.93;0.93;;;;;;;10.26;100.00;99594.81;10412844;28;20080;-84
2023/01/09 12:21:30;;;;;;;;;;;;;;;10.12;100.00;99590.44;10418905;28;20063;-83
2023/01/09 12:26:42;;;;;;;0.00;0.00;;;;;;;9.65;100.00;99596.97;10411115;28;20011;-83
2023/01/09 12:32:03;;;;;;;0.00;0.00;;;;;;;9.36;100.00;99596.69;10411649;28;20057;-82
2023/01/09 12:37:32;;;;;;;0.25;0.20;;;;;;;9.25;100.00;99609.44;10412181;28;20061;-78
2023/01/09 12:42:44;;;;;;;0.05;0.03;;;;;;;9.38;100.00;99605.28;10419598;28;20041;-77
2023/01/09 12:47:47;;;;;;;0.30;0.20;;;;;;;9.64;100.00;99614.97;10412356;28;20130;-78
2023/01/09 12:53:05;;;;;;;0.00;0.00;;;;;;;9.69;100.00;99615.84;10411488;28;20053;-77
2023/01/09 12:58:27;;;;;;;0.00;0.00;;;;;;;9.62;100.00;99625.22;10411301;28;20049;-78
2023/01/09 13:03:43;;;;;;;0.20;0.20;;;;;;;9.63;100.00;99636.38;10382850;28;20046;-77
2023/01/09 13:08:52;;;;;;;0.38;0.28;;;;;;;10.38;100.00;99651.59;10411297;28;20099;-77
2023/01/09 13:14:16;;;;;;;0.10;0.10;;;;;;;10.06;100.00;99657.31;10395282;28;20065;-78
2023/01/09 13:19:28;;;;;;;0.38;0.28;;;;;;;9.99;100.00;99660.69;10414298;28;20477;-77
2023/01/09 13:24:48;;;;;;;1.10;0.45;;;;;;;10.02;100.00;99678.72;10423974;28;20052;-78
2023/01/09 13:30:21;;;;;;;0.00;0.00;;;;;;;10.08;100.00;99676.22;10443376;28;20061;-78
2023/01/09 13:35:23;;;;;;;0.00;0.00;;;;;;;9.78;100.00;99687.97;10403653;28;20090;-78
2023/01/09 13:40:28;;;;;;;0.60;0.38;;;;;;;9.59;100.00;99691.19;10388288;28;20091;-78
2023/01/09 13:45:35;;;;;;;0.35;0.20;;;;;;;9.65;100.00;99706.66;10416061;28;20037;-78
2023/01/09 13:50:39;;;;;;;0.57;0.20;;;;;;;9.63;100.00;99723.81;10410185;28;20390;-77
2023/01/09 13:56:02;;;;;;;0.65;0.40;;;;;;;9.42;100.00;99745.84;10423263;28;20404;-78
2023/01/09 14:01:23;;;;;;;0.00;0.00;;;;;;;9.00;100.00;99762.44;10415095;28;20366;-78
2023/01/09 14:06:26;;;;;;;0.05;0.03;;;;;;;8.29;100.00;99781.88;10383586;28;20045;-77
2023/01/09 14:11:28;;;;;;;0.00;0.00;;;;;;;8.24;100.00;99797.19;10417749;28;20042;-77
2023/01/09 14:16:34;;;;;;;0.00;0.00;;;;;;;8.78;100.00;99792.09;10396728;28;20046;-77
2023/01/09 14:22:06;;;;;;;1.10;0.63;;;;;;;8.78;100.00;99808.34;10411501;28;20067;-77
2023/01/09 14:27:45;;;;;;;1.88;0.17;;;;;;;8.97;100.00;99814.66;10413703;28;20049;-76
2023/01/09 14:33:05;;;;;;;0.40;0.35;;;;;;;9.05;100.00;99836.19;10427763;28;20037;-76
2023/01/09 14:38:34;;;;;;;0.00;0.00;;;;;;;9.20;100.00;99847.53;10410473;28;20045;-77
2023/01/09 14:43:44;;;;;;;0.00;0.00;;;;;;;9.19;100.00;99854.38;10404028;28;20049;-77
2023/01/09 14:49:00;;;;;;;0.03;0.03;;;;;;;9.10;100.00;99863.63;10400061;28;20049;-77
2023/01/09 14:54:14;;;;;;;0.47;0.10;;;;;;;9.08;100.00;99868.75;10416653;28;20354;-76
2023/01/09 14:59:16;;;;;;;0.10;0.10;;;;;;;9.19;100.00;99879.19;10417018;28;20053;-77
2023/01/09 15:04:23;;;;;;;0.32;0.32;;;;;;;9.27;100.00;99884.47;10415280;28;20116;-78
2023/01/09 15:09:30;;;;;;;0.15;0.15;;;;;;;9.29;100.00;99898.19;10404037;28;20132;-76
2023/01/09 15:14:38;;;;;;;0.20;0.03;;;;;;;9.21;100.00;99911.78;10403324;28;20053;-76
2023/01/09 15:19:44;;;;;;;0.00;0.00;;;;;;;9.39;100.00;99930.03;10408780;28;20058;-77
2023/01/09 15:24:46;;;;;;;0.40;0.10;;;;;;;9.22;100.00;99935.78;10401821;28;20405;-77
2023/01/09 15:29:49;;;;;;;0.20;0.20;;;;;;;9.24;100.00;99951.22;10416369;28;20056;-77
2023/01/09 15:34:54;;;;;;;0.00;0.00;;;;;;;9.19;100.00;99964.88;10397684;28;20053;-79
2023/01/09 15:40:01;;;;;;;0.28;0.20;;;;;;;8.83;100.00;99965.97;10409728;28;20088;-79
2023/01/09 15:45:34;;;;;;;11.40;0.57;;;;;;;8.77;100.00;99975.28;10408305;28;20034;-78
2023/01/09 15:50:43;;;;;;;0.00;0.00;;;;;;;8.78;100.00;99985.56;10414700;28;20082;-78
2023/01/09 15:55:46;;;;;;;0.00;0.00;;;;;;;8.92;100.00;99990.09;10410198;28;20519;-77
2023/01/09 16:00:57;;;;;;;0.70;0.43;;;;;;;8.89;100.00;99996.03;10410565;28;20505;-78
2023/01/09 16:06:06;;;;;;;0.00;0.00;;;;;;;8.59;100.00;100022.00;10430626;28;20045;-83
2023/01/09 16:11:18;;;;;;;0.43;0.30;;;;;;;8.76;100.00;100033.47;10427302;28;20645;-83
2023/01/09 16:16:30;;;;;;;0.00;0.00;;;;;;;8.95;100.00;100042.38;10386687;28;20129;-82
2023/01/09 16:21:34;;;;;;;0.25;0.15;;;;;;;8.78;100.00;100054.91;10398744;28;20140;-82
2023/01/09 16:26:36;;;;;;;0.00;0.00;;;;;;;8.94;100.00;100068.91;10413421;28;20452;-81
2023/01/09 16:31:38;;;;;;;0.00;0.00;;;;;;;9.11;100.00;100073.50;10417578;28;20029;-82
2023/01/09 16:36:39;;;;;;;0.30;0.20;;;;;;;9.25;100.00;100076.34;10422660;28;20156;-83
2023/01/09 16:47:02;;;;;;;0.10;0.10;;;;;;;9.08;100.00;100097.44;10436022;28;20144;-83
2023/01/09 16:52:15;;;;;;;0.10;0.10;;;;;;;8.82;100.00;100102.06;10413021;28;20048;-84
2023/01/09 16:57:17;;;;;;;0.13;0.13;;;;;;;8.65;100.00;100109.44;10417730;28;20045;-84
2023/01/09 17:02:19;;;;;;;0.20;0.20;;;;;;;8.64;100.00;100117.97;10402018;28;20132;-84
2023/01/09 17:07:26;;;;;;;0.57;0.28;;;;;;;8.39;100.00;100132.78;10418005;28;20080;-83
2023/01/09 17:12:28;;;;;;;0.05;0.05;;;;;;;8.28;100.00;100139.41;10418024;28;20034;-82
2023/01/09 17:17:29;;;;;;;0.05;0.05;;;;;;;8.32;100.00;100146.31;10401692;28;20057;-83
2023/01/09 17:22:31;;;;;;;0.22;0.20;;;;;;;8.14;100.00;100152.78;10416957;28;20050;-83
2023/01/09 17:32:56;;;;;;;0.22;0.10;;;;;;;7.91;100.00;100186.44;10416471;28;20054;-83
2023/01/09 17:37:57;;;;;;;0.17;0.17;;;;;;;7.93;100.00;100189.88;10416501;28;20137;-83
2023/01/09 17:42:59;;;;;;;0.30;0.30;;;;;;;7.83;100.00;100198.19;10410797;28;20128;-83
2023/01/09 17:48:00;;;;;;;0.20;0.15;;;;;;;7.93;100.00;100195.00;10438530;28;20081;-83
2023/01/09 17:53:02;;;;;;;0.10;0.10;;;;;;;7.68;100.00;100208.03;10418119;28;20073;-83
2023/01/09 17:58:03;;;;;;;0.38;0.38;;;;;;;7.80;100.00;100223.75;10418174;28;20041;-83
2023/01/09 18:03:06;;;;;;;0.70;0.70;;;;;;;7.58;100.00;100230.88;10437314;28;20083;-82
2023/01/09 18:08:12;;;;;;;3.50;0.35;;;;;;;7.62;100.00;100239.50;10424565;28;20038;-83
2023/01/09 18:13:15;;;;;;;0.10;0.05;;;;;;;7.69;100.00;100245.69;10401555;28;20041;-83
2023/01/09 18:18:16;;;;;;;0.30;0.30;;;;;;;7.89;100.00;100262.47;10409743;28;20107;-82
2023/01/09 18:23:19;;;;;;;0.03;0.03;;;;;;;7.78;100.00;100267.31;10399622;28;20041;-83
2023/01/09 18:28:20;;;;;;;0.40;0.30;;;;;;;7.73;100.00;100278.25;10391403;28;20481;-83
2023/01/09 18:33:22;;;;;;;0.10;0.10;;;;;;;8.05;100.00;100285.97;10391287;28;20054;-83
2023/01/09 18:38:24;;;;;;;0.08;0.08;;;;;;;8.18;100.00;100305.97;10413778;28;20099;-83
2023/01/09 18:43:28;;;;;;;0.45;0.20;;;;;;;8.16;100.00;100320.44;10408112;28;20087;-82
2023/01/09 18:48:30;;;;;;;0.25;0.13;;;;;;;8.25;100.00;100330.97;10431676;28;20051;-82
2023/01/09 18:53:34;;;;;;;0.00;0.00;;;;;;;8.39;100.00;100335.56;10410221;28;20049;-82
2023/01/09 18:58:35;;;;;;;0.20;0.20;;;;;;;8.36;100.00;100335.50;10441293;28;20025;-81
2023/01/09 19:03:37;;;;;;;0.03;0.00;;;;;;;8.22;100.00;100342.84;10428976;28;20481;-83
2023/01/09 19:08:39;;;;;;;0.10;0.10;;;;;;;8.50;100.00;100357.31;10440079;28;20076;-82
2023/01/09 19:13:40;;;;;;;1.65;0.88;;;;;;;8.50;100.00;100372.72;10414463;28;20103;-83
2023/01/09 19:18:43;;;;;;;0.10;0.10;;;;;;;8.47;100.00;100376.91;10411249;28;20263;-83
2023/01/09 19:23:45;;;;;;;1.27;1.17;;;;;;;8.34;100.00;100380.81;10410898;28;20045;-83
2023/01/09 19:28:49;;;;;;;1.38;0.30;;;;;;;8.36;100.00;100394.56;10433692;28;20061;-83
2023/01/09 19:33:51;;;;;;;0.00;0.00;;;;;;;8.29;100.00;100411.47;10412446;28;20519;-83
2023/01/09 19:39:01;;;;;;;0.28;0.28;;;;;;;8.20;100.00;100419.78;10411930;28;20049;-83
2023/01/09 19:44:02;;;;;;;0.30;0.10;;;;;;;8.44;100.00;100415.28;10411022;28;20499;-83
2023/01/09 19:49:04;;;;;;;0.22;0.20;;;;;;;8.48;100.00;100419.72;10418473;28;20331;-82
2023/01/09 19:54:09;;;;;;;0.03;0.03;;;;;;;8.18;100.00;100428.28;10415405;28;20103;-83
2023/01/09 19:59:13;;;;;;;0.10;0.10;;;;;;;8.36;100.00;100441.59;10412126;28;20489;-82
2023/01/09 20:04:16;;;;;;;0.08;0.08;;;;;;;8.32;100.00;100456.88;10412408;28;20045;-82
2023/01/09 20:09:21;;;;;;;0.45;0.22;;;;;;;8.53;100.00;100464.34;10413693;28;20548;-84
2023/01/09 20:14:23;;;;;;;2.47;1.33;;;;;;;8.35;100.00;100480.06;10422446;28;20076;-83
2023/01/09 20:19:26;;;;;;;1.55;0.75;;;;;;;8.40;100.00;100494.78;10411280;28;20044;-81
2023/01/09 20:24:27;;;;;;;0.00;0.00;;;;;;;8.42;100.00;100503.38;10410973;28;20080;-82
2023/01/09 20:29:29;;;;;;;0.25;0.13;;;;;;;8.22;100.00;100513.09;10410000;28;20041;-82
2023/01/09 20:34:31;;;;;;;0.00;0.00;;;;;;;8.29;100.00;100526.13;10411177;28;20080;-83
2023/01/09 20:39:32;;;;;;;0.30;0.28;;;;;;;8.30;100.00;100531.28;10400516;28;20309;-83
2023/01/09 20:44:34;;;;;;;0.10;0.10;;;;;;;8.27;100.00;100544.00;10409365;28;20421;-83
2023/01/09 20:49:35;;;;;;;0.17;0.17;;;;;;;8.34;100.00;100547.63;10419163;28;20103;-82
2023/01/09 20:54:39;;;;;;;0.10;0.10;;;;;;;8.20;100.00;100555.81;10413575;28;20525;-82
2023/01/09 20:59:41;;;;;;;0.30;0.25;;;;;;;8.39;100.00;100564.03;10410443;28;20408;-82
2023/01/09 21:04:43;;;;;;;0.00;0.00;;;;;;;8.24;100.00;100579.88;10399358;28;20064;-83
2023/01/09 21:09:45;;;;;;;0.03;0.03;;;;;;;8.04;100.00;100592.06;10412593;28;20128;-82
2023/01/09 21:14:46;;;;;;;0.90;0.17;;;;;;;8.16;100.00;100597.56;10410342;28;20124;-81
2023/01/09 21:19:48;;;;;;;0.00;0.00;;;;;;;8.02;100.00;100620.25;10452512;28;20046;-83
2023/01/09 21:24:51;;;;;;;0.20;0.20;;;;;;;7.97;100.00;100633.75;10380902;28;20045;-83
2023/01/09 21:29:53;;;;;;;0.45;0.20;;;;;;;7.98;100.00;100656.88;10420980;28;20061;-83
2023/01/09 21:34:55;;;;;;;2.05;0.47;;;;;;;7.91;100.00;100653.25;10415211;28;20072;-82
2023/01/09 21:39:56;;;;;;;0.30;0.22;;;;;;;7.98;100.00;100668.84;10393028;28;20072;-82
2023/01/09 21:50:18;;;;;;;0.52;0.35;;;;;;;7.80;100.00;100674.25;10417793;28;20132;-82
2023/01/09 21:55:20;;;;;;;0.10;0.10;;;;;;;7.82;100.00;100683.75;10411628;28;20042;-82
2023/01/09 22:00:22;;;;;;;0.10;0.10;;;;;;;7.76;100.00;100693.78;10415738;28;20563;-83
2023/01/09 22:05:25;;;;;;;1.17;0.50;;;;;;;7.99;100.00;100701.38;10410665;28;20095;-82
2023/01/09 22:10:27;;;;;;;0.52;0.30;;;;;;;7.92;100.00;100715.69;10431882;28;20057;-82
2023/01/09 22:15:29;;;;;;;1.35;0.63;;;;;;;7.96;100.00;100726.94;10415222;28;20073;-82
2023/01/09 22:20:30;;;;;;;0.82;0.15;;;;;;;8.04;100.00;100733.19;10415423;28;20049;-82
2023/01/09 22:25:35;;;;;;;0.10;0.10;;;;;;;7.85;100.00;100734.25;10414614;28;20052;-82
2023/01/09 22:30:40;;;;;;;3.75;0.57;;;;;;;7.77;100.00;100746.84;10415342;28;20108;-82
2023/01/09 22:35:42;;;;;;;1.65;0.68;;;;;;;7.74;100.00;100762.09;10415347;28;20407;-82
2023/01/09 22:40:44;;;;;;;0.20;0.15;;;;;;;7.61;100.00;100777.06;10415725;28;20122;-82
2023/01/09 22:45:45;;;;;;;2.20;0.73;;;;;;;7.39;100.00;100780.53;10399554;28;20054;-82
2023/01/09 22:50:47;;;;;;;0.00;0.00;;;;;;;7.39;100.00;100788.22;10415862;28;20489;-82
2023/01/09 22:55:57;;;;;;;0.10;0.10;;;;;;;7.41;100.00;100801.97;10414866;28;20115;-83
2023/01/09 23:00:58;;;;;;;2.72;0.65;;;;;;;7.32;100.00;100811.88;10426556;28;20049;-82
2023/01/09 23:06:02;;;;;;;0.00;0.00;;;;;;;7.29;100.00;100820.31;10428128;28;20056;-82
2023/01/09 23:11:07;;;;;;;0.20;0.10;;;;;;;7.17;100.00;100835.22;10410464;28;20114;-82
2023/01/09 23:16:09;;;;;;;0.00;0.00;;;;;;;7.14;100.00;100850.47;10444280;28;20040;-82
2023/01/09 23:21:10;;;;;;;1.92;0.68;;;;;;;7.02;100.00;100850.84;10436019;28;20064;-83
2023/01/09 23:26:12;;;;;;;0.35;0.28;;;;;;;6.91;100.00;100862.38;10414716;28;20549;-83
2023/01/09 23:31:14;;;;;;;0.30;0.30;;;;;;;7.02;100.00;100871.34;10413785;28;20049;-83
2023/01/09 23:36:16;;;;;;;1.05;0.28;;;;;;;6.89;100.00;100884.50;10399428;28;20452;-83
2023/01/09 23:41:18;;;;;;;0.05;0.05;;;;;;;6.85;100.00;100898.84;10414672;28;20112;-83
2023/01/09 23:46:20;;;;;;;0.22;0.15;;;;;;;7.02;100.00;100911.47;10420272;28;20097;-82
2023/01/09 23:51:22;;;;;;;0.08;0.08;;;;;;;6.91;100.00;100924.72;10457605;28;20048;-83
2023/01/09 23:56:23;;;;;;;0.20;0.20;;;;;;;6.98;100.00;100926.72;10414445;28;20068;-83
